createdAt,value
2023-04-03T00:03:03.169Z,51.19
2023-04-03T00:13:06.297Z,51.80
2023-04-03T00:23:09.399Z,53.51
2023-04-03T00:33:15.627Z,53.60
2023-04-03T00:43:24.517Z,54.02
2023-04-03T00:53:32.216Z,53.98
2023-04-03T01:03:34.618Z,52.57
2023-04-03T01:13:40.395Z,51.71
2023-04-03T01:23:53.213Z,52.47
2023-04-03T01:33:58.799Z,50.15
2023-04-03T01:44:01.535Z,50.72
2023-04-03T01:54:04.188Z,50.69
2023-04-03T02:04:06.917Z,51.11
2023-04-03T02:14:09.460Z,49.04
2023-04-03T02:24:11.782Z,50.19
2023-04-03T02:34:15.015Z,48.99
2023-04-03T02:44:18.984Z,49.66
2023-04-03T02:54:24.323Z,50.33
2023-04-03T03:04:30.477Z,50.25
2023-04-03T03:14:33.051Z,50.44
2023-04-03T03:24:35.318Z,51.04
2023-04-03T03:34:37.677Z,50.31
2023-04-03T03:44:41.649Z,50.16
2023-04-03T03:54:43.918Z,50.75
2023-04-03T04:04:46.884Z,50.39
2023-04-03T04:14:49.660Z,49.95
2023-04-03T04:24:52.384Z,49.75
2023-04-03T04:34:55.074Z,50.38
2023-04-03T04:44:57.925Z,49.99
2023-04-03T04:55:00.980Z,50.07
2023-04-03T05:05:05.342Z,51.90
2023-04-03T05:15:09.436Z,50.29
2023-04-03T05:25:15.775Z,52.10
2023-04-03T05:35:20.329Z,49.87
2023-04-03T05:45:26.444Z,49.18
2023-04-03T05:55:28.963Z,51.10
2023-04-03T06:05:31.349Z,49.63
2023-04-03T06:15:33.734Z,49.13
2023-04-03T06:25:36.995Z,48.70
2023-04-03T06:35:40.363Z,48.66
2023-04-03T06:45:42.818Z,47.67
2023-04-03T06:55:45.281Z,48.00
2023-04-03T07:05:47.579Z,45.61
2023-04-03T07:15:50.324Z,45.79
2023-04-03T07:25:53.424Z,47.05
2023-04-03T07:35:56.211Z,45.26
2023-04-03T07:45:58.673Z,45.57
2023-04-03T07:56:02.557Z,44.68
2023-04-03T08:06:11.926Z,42.60
2023-04-03T08:16:21.398Z,45.10
2023-04-03T08:26:23.931Z,42.67
2023-04-03T08:36:28.517Z,40.35
2023-04-03T08:46:46.958Z,41.20
2023-04-03T08:56:49.323Z,39.12
2023-04-03T09:06:55.397Z,38.55
2023-04-03T09:17:01.244Z,38.35
2023-04-03T09:27:10.476Z,37.16
2023-04-03T09:37:39.038Z,36.88
2023-04-03T09:47:42.914Z,35.85
2023-04-03T09:57:46.943Z,36.14
2023-04-03T10:07:55.052Z,35.12
2023-04-03T10:18:29.477Z,34.21
2023-04-03T10:28:50.486Z,35.66
2023-04-03T10:39:02.264Z,33.53
2023-04-03T10:49:34.958Z,33.32
2023-04-03T10:59:59.626Z,30.74
2023-04-03T11:10:09.528Z,29.72
2023-04-03T11:20:20.021Z,29.25
2023-04-03T11:30:22.032Z,29.67
2023-04-03T11:40:24.442Z,29.10
2023-04-03T11:50:36.153Z,30.64
2023-04-03T12:00:56.810Z,28.72
2023-04-03T12:11:19.917Z,28.71
2023-04-03T12:21:47.671Z,28.40
2023-04-03T12:32:11.822Z,26.67
2023-04-03T12:42:18.844Z,28.32
2023-04-03T12:52:42.766Z,28.35
2023-04-03T13:02:46.321Z,28.71
2023-04-03T13:12:49.667Z,29.99
2023-04-03T13:22:58.705Z,28.67
2023-04-03T13:33:03.911Z,27.94
2023-04-03T13:43:17.584Z,28.62
2023-04-03T13:53:19.788Z,30.15
2023-04-03T14:03:43.339Z,27.48
2023-04-03T14:13:52.491Z,28.34
2023-04-03T14:23:54.668Z,28.92
2023-04-03T14:33:56.886Z,28.29
2023-04-03T14:43:59.348Z,28.37
2023-04-03T14:54:01.877Z,29.16
2023-04-03T15:04:15.080Z,28.58
2023-04-03T15:14:29.585Z,27.77
2023-04-03T15:24:39.384Z,29.86
2023-04-03T15:34:41.725Z,30.00
2023-04-03T15:44:44.174Z,27.86
2023-04-03T15:54:47.258Z,28.24
2023-04-03T16:04:50.131Z,27.87
2023-04-03T16:14:53.097Z,29.28
2023-04-03T16:24:55.514Z,28.65
2023-04-03T16:34:58.580Z,29.29
2023-04-03T16:45:03.873Z,27.83
2023-04-03T16:55:08.018Z,27.84
2023-04-03T17:05:10.799Z,29.46
2023-04-03T17:15:14.102Z,29.27
2023-04-03T17:25:16.644Z,28.20
2023-04-03T17:35:18.812Z,31.10
2023-04-03T17:45:20.994Z,31.15
2023-04-03T17:55:23.187Z,31.54
2023-04-03T18:05:31.552Z,30.23
2023-04-03T18:15:33.743Z,31.31
2023-04-03T18:25:37.831Z,31.86
2023-04-03T18:35:40.058Z,30.46
2023-04-03T18:45:43.673Z,31.53
2023-04-03T18:55:47.351Z,30.88
2023-04-03T19:05:49.538Z,34.20
2023-04-03T19:15:59.148Z,31.44
2023-04-03T19:26:03.862Z,32.18
2023-04-03T19:36:06.721Z,33.13
2023-04-03T19:46:09.632Z,35.06
2023-04-03T19:56:11.963Z,34.18
2023-04-03T20:06:21.754Z,33.37
2023-04-03T20:16:25.818Z,32.50
2023-04-03T20:26:31.646Z,33.14
2023-04-03T20:36:34.932Z,34.49
2023-04-03T20:46:51.290Z,35.57
2023-04-03T20:56:56.044Z,33.94
2023-04-03T21:07:38.832Z,33.94
2023-04-03T21:17:59.824Z,34.28
2023-04-03T21:28:02.870Z,34.77
2023-04-03T21:38:06.579Z,35.89
2023-04-03T21:48:10.338Z,34.61
2023-04-03T21:58:12.627Z,35.43
2023-04-03T22:08:15.172Z,35.69
2023-04-03T22:18:17.602Z,36.71
2023-04-03T22:28:20.646Z,37.10
2023-04-03T22:38:23.056Z,38.46
2023-04-03T22:48:25.700Z,38.56
2023-04-03T22:58:28.797Z,38.34
2023-04-03T23:08:32.495Z,38.45
2023-04-03T23:18:35.154Z,38.54
2023-04-03T23:28:37.325Z,40.18
2023-04-03T23:38:39.434Z,39.89
2023-04-03T23:48:41.642Z,41.01
2023-04-03T23:58:43.736Z,41.07
